sensor_id;sensor_type;location;lat;lon;timestamp;P1;durP1;ratioP1;P2;durP2;ratioP2
66946;SDS011;53853;51.982;5.928;2022-12-13T00:00:30;29.58;;;17.98;;
66946;SDS011;53853;51.982;5.928;2022-12-13T00:03:00;29.08;;;19.50;;
66946;SDS011;53853;51.982;5.928;2022-12-13T00:05:30;30.20;;;18.58;;
66946;SDS011;53853;51.982;5.928;2022-12-13T00:08:00;28.30;;;18.27;;
66946;SDS011;53853;51.982;5.928;2022-12-13T00:10:34;30.52;;;17.13;;
66946;SDS011;53853;51.982;5.928;2022-12-13T00:13:04;24.13;;;17.10;;
66946;SDS011;53853;51.982;5.928;2022-12-13T00:15:34;34.50;;;21.40;;
66946;SDS011;53853;51.982;5.928;2022-12-13T00:18:04;34.05;;;20.60;;
66946;SDS011;53853;51.982;5.928;2022-12-13T00:20:38;38.75;;;25.75;;
66946;SDS011;53853;51.982;5.928;2022-12-13T00:23:08;38.95;;;25.15;;
66946;SDS011;53853;51.982;5.928;2022-12-13T00:25:40;42.00;;;23.95;;
66946;SDS011;53853;51.982;5.928;2022-12-13T00:28:10;36.67;;;23.73;;
66946;SDS011;53853;51.982;5.928;2022-12-13T00:30:40;36.63;;;24.52;;
66946;SDS011;53853;51.982;5.928;2022-12-13T00:33:10;33.88;;;22.35;;
66946;SDS011;53853;51.982;5.928;2022-12-13T00:35:40;31.73;;;21.10;;
66946;SDS011;53853;51.982;5.928;2022-12-13T00:38:10;30.27;;;19.63;;
66946;SDS011;53853;51.982;5.928;2022-12-13T00:40:43;29.58;;;18.85;;
66946;SDS011;53853;51.982;5.928;2022-12-13T00:43:13;30.90;;;19.17;;
66946;SDS011;53853;51.982;5.928;2022-12-13T00:45:43;31.13;;;20.40;;
66946;SDS011;53853;51.982;5.928;2022-12-13T00:48:13;28.33;;;18.33;;
66946;SDS011;53853;51.982;5.928;2022-12-13T00:50:43;31.00;;;18.13;;
66946;SDS011;53853;51.982;5.928;2022-12-13T00:53:13;28.65;;;18.20;;
66946;SDS011;53853;51.982;5.928;2022-12-13T00:55:45;29.92;;;19.08;;
66946;SDS011;53853;51.982;5.928;2022-12-13T00:58:15;30.80;;;18.38;;
66946;SDS011;53853;51.982;5.928;2022-12-13T01:00:46;30.10;;;19.23;;
66946;SDS011;53853;51.982;5.928;2022-12-13T01:03:16;27.25;;;16.65;;
66946;SDS011;53853;51.982;5.928;2022-12-13T01:05:50;25.85;;;15.90;;
66946;SDS011;53853;51.982;5.928;2022-12-13T01:08:20;29.00;;;18.58;;
66946;SDS011;53853;51.982;5.928;2022-12-13T01:10:53;24.83;;;16.75;;
66946;SDS011;53853;51.982;5.928;2022-12-13T01:13:23;27.13;;;17.23;;
66946;SDS011;53853;51.982;5.928;2022-12-13T01:15:53;26.92;;;17.63;;
66946;SDS011;53853;51.982;5.928;2022-12-13T01:18:23;30.30;;;18.38;;
66946;SDS011;53853;51.982;5.928;2022-12-13T01:20:56;25.00;;;16.05;;
66946;SDS011;53853;51.982;5.928;2022-12-13T01:23:27;24.40;;;15.68;;
66946;SDS011;53853;51.982;5.928;2022-12-13T01:26:00;28.20;;;18.63;;
66946;SDS011;53853;51.982;5.928;2022-12-13T01:28:31;28.50;;;17.33;;
66946;SDS011;53853;51.982;5.928;2022-12-13T01:31:02;31.45;;;17.83;;
66946;SDS011;53853;51.982;5.928;2022-12-13T01:33:33;33.92;;;18.85;;
66946;SDS011;53853;51.982;5.928;2022-12-13T01:36:04;43.42;;;27.23;;
66946;SDS011;53853;51.982;5.928;2022-12-13T01:38:35;48.17;;;28.55;;
66946;SDS011;53853;51.982;5.928;2022-12-13T01:41:08;43.65;;;26.83;;
66946;SDS011;53853;51.982;5.928;2022-12-13T01:43:52;50.17;;;30.50;;
66946;SDS011;53853;51.982;5.928;2022-12-13T01:46:25;47.50;;;29.67;;
66946;SDS011;53853;51.982;5.928;2022-12-13T01:48:58;49.38;;;29.60;;
66946;SDS011;53853;51.982;5.928;2022-12-13T01:51:33;47.83;;;26.60;;
66946;SDS011;53853;51.982;5.928;2022-12-13T01:54:08;39.03;;;25.73;;
66946;SDS011;53853;51.982;5.928;2022-12-13T01:56:43;39.78;;;25.27;;
66946;SDS011;53853;51.982;5.928;2022-12-13T01:59:16;33.38;;;22.42;;
66946;SDS011;53853;51.982;5.928;2022-12-13T02:01:47;33.40;;;21.70;;
66946;SDS011;53853;51.982;5.928;2022-12-13T02:04:20;38.13;;;22.10;;
66946;SDS011;53853;51.982;5.928;2022-12-13T02:06:55;31.58;;;20.77;;
66946;SDS011;53853;51.982;5.928;2022-12-13T02:09:26;30.30;;;17.63;;
66946;SDS011;53853;51.982;5.928;2022-12-13T02:11:58;26.98;;;16.55;;
66946;SDS011;53853;51.982;5.928;2022-12-13T02:14:29;31.70;;;19.80;;
66946;SDS011;53853;51.982;5.928;2022-12-13T02:17:00;32.63;;;18.33;;
66946;SDS011;53853;51.982;5.928;2022-12-13T02:19:50;29.90;;;17.88;;
66946;SDS011;53853;51.982;5.928;2022-12-13T02:22:51;26.30;;;17.02;;
66946;SDS011;53853;51.982;5.928;2022-12-13T02:25:39;26.80;;;16.85;;
66946;SDS011;53853;51.982;5.928;2022-12-13T02:28:34;27.73;;;16.02;;
66946;SDS011;53853;51.982;5.928;2022-12-13T02:31:25;26.13;;;16.70;;
66946;SDS011;53853;51.982;5.928;2022-12-13T02:34:00;26.85;;;16.55;;
66946;SDS011;53853;51.982;5.928;2022-12-13T02:36:36;23.38;;;15.95;;
66946;SDS011;53853;51.982;5.928;2022-12-13T02:39:16;25.98;;;16.95;;
66946;SDS011;53853;51.982;5.928;2022-12-13T02:41:50;27.85;;;16.35;;
66946;SDS011;53853;51.982;5.928;2022-12-13T02:44:28;27.55;;;17.08;;
66946;SDS011;53853;51.982;5.928;2022-12-13T02:47:08;28.25;;;15.02;;
66946;SDS011;53853;51.982;5.928;2022-12-13T02:49:42;29.90;;;15.98;;
66946;SDS011;53853;51.982;5.928;2022-12-13T02:52:16;25.58;;;16.80;;
66946;SDS011;53853;51.982;5.928;2022-12-13T02:54:48;27.33;;;16.25;;
66946;SDS011;53853;51.982;5.928;2022-12-13T02:57:28;25.15;;;16.08;;
66946;SDS011;53853;51.982;5.928;2022-12-13T03:00:00;25.98;;;16.33;;
66946;SDS011;53853;51.982;5.928;2022-12-13T03:02:39;25.55;;;16.35;;
66946;SDS011;53853;51.982;5.928;2022-12-13T03:05:19;24.60;;;16.27;;
66946;SDS011;53853;51.982;5.928;2022-12-13T03:08:13;22.38;;;14.98;;
66946;SDS011;53853;51.982;5.928;2022-12-13T03:10:58;23.73;;;16.10;;
66946;SDS011;53853;51.982;5.928;2022-12-13T03:13:33;28.42;;;16.60;;
66946;SDS011;53853;51.982;5.928;2022-12-13T03:16:19;23.90;;;15.07;;
66946;SDS011;53853;51.982;5.928;2022-12-13T03:19:02;25.70;;;15.23;;
66946;SDS011;53853;51.982;5.928;2022-12-13T03:21:36;24.88;;;16.08;;
66946;SDS011;53853;51.982;5.928;2022-12-13T03:24:07;26.05;;;16.48;;
66946;SDS011;53853;51.982;5.928;2022-12-13T03:26:38;24.60;;;15.20;;
66946;SDS011;53853;51.982;5.928;2022-12-13T03:29:08;24.90;;;16.52;;
66946;SDS011;53853;51.982;5.928;2022-12-13T03:31:38;24.23;;;15.75;;
66946;SDS011;53853;51.982;5.928;2022-12-13T03:34:11;33.28;;;17.52;;
66946;SDS011;53853;51.982;5.928;2022-12-13T03:36:41;24.15;;;15.57;;
66946;SDS011;53853;51.982;5.928;2022-12-13T03:39:11;25.15;;;16.27;;
66946;SDS011;53853;51.982;5.928;2022-12-13T03:41:40;27.90;;;16.27;;
66946;SDS011;53853;51.982;5.928;2022-12-13T03:44:11;25.25;;;15.93;;
66946;SDS011;53853;51.982;5.928;2022-12-13T03:46:41;24.90;;;15.75;;
66946;SDS011;53853;51.982;5.928;2022-12-13T03:49:13;24.75;;;14.57;;
66946;SDS011;53853;51.982;5.928;2022-12-13T03:51:43;24.83;;;14.80;;
66946;SDS011;53853;51.982;5.928;2022-12-13T03:54:13;26.58;;;17.05;;
66946;SDS011;53853;51.982;5.928;2022-12-13T03:56:43;27.10;;;15.77;;
66946;SDS011;53853;51.982;5.928;2022-12-13T03:59:13;25.98;;;14.57;;
66946;SDS011;53853;51.982;5.928;2022-12-13T04:01:43;27.10;;;15.07;;
66946;SDS011;53853;51.982;5.928;2022-12-13T04:04:15;26.08;;;16.05;;
66946;SDS011;53853;51.982;5.928;2022-12-13T04:06:45;23.92;;;16.25;;
66946;SDS011;53853;51.982;5.928;2022-12-13T04:09:15;26.55;;;16.00;;
66946;SDS011;53853;51.982;5.928;2022-12-13T04:11:45;25.83;;;16.20;;
66946;SDS011;53853;51.982;5.928;2022-12-13T04:14:30;25.80;;;15.82;;
66946;SDS011;53853;51.982;5.928;2022-12-13T04:17:00;25.65;;;15.57;;
66946;SDS011;53853;51.982;5.928;2022-12-13T04:19:32;28.42;;;16.13;;
66946;SDS011;53853;51.982;5.928;2022-12-13T04:22:02;23.95;;;15.27;;
66946;SDS011;53853;51.982;5.928;2022-12-13T04:24:32;23.05;;;15.02;;
66946;SDS011;53853;51.982;5.928;2022-12-13T04:27:02;29.52;;;17.13;;
66946;SDS011;53853;51.982;5.928;2022-12-13T04:29:32;27.08;;;16.88;;
66946;SDS011;53853;51.982;5.928;2022-12-13T04:32:02;29.25;;;17.65;;
66946;SDS011;53853;51.982;5.928;2022-12-13T04:34:35;24.45;;;16.13;;
66946;SDS011;53853;51.982;5.928;2022-12-13T04:37:05;21.90;;;14.65;;
66946;SDS011;53853;51.982;5.928;2022-12-13T04:39:37;26.52;;;15.13;;
66946;SDS011;53853;51.982;5.928;2022-12-13T04:42:07;21.63;;;15.40;;
66946;SDS011;53853;51.982;5.928;2022-12-13T04:44:37;27.77;;;17.17;;
66946;SDS011;53853;51.982;5.928;2022-12-13T04:47:07;25.38;;;16.25;;
66946;SDS011;53853;51.982;5.928;2022-12-13T04:49:40;28.23;;;16.20;;
66946;SDS011;53853;51.982;5.928;2022-12-13T04:52:09;24.35;;;15.40;;
66946;SDS011;53853;51.982;5.928;2022-12-13T04:54:40;25.48;;;15.40;;
66946;SDS011;53853;51.982;5.928;2022-12-13T04:57:10;26.88;;;16.00;;
66946;SDS011;53853;51.982;5.928;2022-12-13T04:59:40;28.30;;;15.85;;
66946;SDS011;53853;51.982;5.928;2022-12-13T05:02:11;22.20;;;15.68;;
66946;SDS011;53853;51.982;5.928;2022-12-13T05:04:44;23.35;;;15.55;;
66946;SDS011;53853;51.982;5.928;2022-12-13T05:07:14;24.05;;;16.60;;
66946;SDS011;53853;51.982;5.928;2022-12-13T05:09:44;27.17;;;15.52;;
66946;SDS011;53853;51.982;5.928;2022-12-13T05:12:14;30.15;;;17.80;;
66946;SDS011;53853;51.982;5.928;2022-12-13T05:14:44;27.85;;;16.20;;
66946;SDS011;53853;51.982;5.928;2022-12-13T05:17:14;28.42;;;17.35;;
66946;SDS011;53853;51.982;5.928;2022-12-13T05:19:46;26.67;;;16.40;;
66946;SDS011;53853;51.982;5.928;2022-12-13T05:22:16;27.20;;;17.08;;
66946;SDS011;53853;51.982;5.928;2022-12-13T05:24:46;26.40;;;15.45;;
66946;SDS011;53853;51.982;5.928;2022-12-13T05:27:17;29.10;;;17.00;;
66946;SDS011;53853;51.982;5.928;2022-12-13T05:29:47;26.75;;;15.85;;
66946;SDS011;53853;51.982;5.928;2022-12-13T05:32:17;25.52;;;16.92;;
66946;SDS011;53853;51.982;5.928;2022-12-13T05:34:49;32.20;;;16.17;;
66946;SDS011;53853;51.982;5.928;2022-12-13T05:37:19;23.55;;;16.15;;
66946;SDS011;53853;51.982;5.928;2022-12-13T05:39:49;30.33;;;19.45;;
66946;SDS011;53853;51.982;5.928;2022-12-13T05:42:19;26.52;;;17.15;;
66946;SDS011;53853;51.982;5.928;2022-12-13T05:44:50;25.80;;;15.60;;
66946;SDS011;53853;51.982;5.928;2022-12-13T05:47:20;31.67;;;18.23;;
66946;SDS011;53853;51.982;5.928;2022-12-13T05:49:52;25.48;;;17.05;;
66946;SDS011;53853;51.982;5.928;2022-12-13T05:52:22;26.70;;;16.55;;
66946;SDS011;53853;51.982;5.928;2022-12-13T05:54:53;23.35;;;15.73;;
66946;SDS011;53853;51.982;5.928;2022-12-13T05:57:23;27.77;;;16.70;;
66946;SDS011;53853;51.982;5.928;2022-12-13T05:59:53;30.00;;;17.45;;
66946;SDS011;53853;51.982;5.928;2022-12-13T06:02:23;25.52;;;15.52;;
66946;SDS011;53853;51.982;5.928;2022-12-13T06:04:56;25.70;;;16.52;;
66946;SDS011;53853;51.982;5.928;2022-12-13T06:07:26;27.35;;;17.15;;
66946;SDS011;53853;51.982;5.928;2022-12-13T06:09:56;26.05;;;16.70;;
66946;SDS011;53853;51.982;5.928;2022-12-13T06:12:26;25.35;;;17.35;;
66946;SDS011;53853;51.982;5.928;2022-12-13T06:14:56;26.30;;;16.85;;
66946;SDS011;53853;51.982;5.928;2022-12-13T06:17:28;28.77;;;17.65;;
66946;SDS011;53853;51.982;5.928;2022-12-13T06:20:01;29.88;;;16.95;;
66946;SDS011;53853;51.982;5.928;2022-12-13T06:22:32;26.52;;;17.58;;
66946;SDS011;53853;51.982;5.928;2022-12-13T06:25:02;23.88;;;15.20;;
66946;SDS011;53853;51.982;5.928;2022-12-13T06:27:32;30.17;;;18.23;;
66946;SDS011;53853;51.982;5.928;2022-12-13T06:30:02;26.00;;;16.95;;
66946;SDS011;53853;51.982;5.928;2022-12-13T06:32:33;28.00;;;17.73;;
66946;SDS011;53853;51.982;5.928;2022-12-13T06:35:06;24.95;;;16.52;;
66946;SDS011;53853;51.982;5.928;2022-12-13T06:37:36;27.55;;;18.23;;
66946;SDS011;53853;51.982;5.928;2022-12-13T06:40:07;27.77;;;17.15;;
66946;SDS011;53853;51.982;5.928;2022-12-13T06:42:37;30.13;;;18.15;;
66946;SDS011;53853;51.982;5.928;2022-12-13T06:45:07;27.80;;;17.75;;
66946;SDS011;53853;51.982;5.928;2022-12-13T06:47:38;31.02;;;17.10;;
66946;SDS011;53853;51.982;5.928;2022-12-13T06:50:10;27.42;;;16.95;;
66946;SDS011;53853;51.982;5.928;2022-12-13T06:52:40;26.80;;;16.20;;
66946;SDS011;53853;51.982;5.928;2022-12-13T06:55:10;25.33;;;16.73;;
66946;SDS011;53853;51.982;5.928;2022-12-13T06:57:40;25.60;;;16.77;;
66946;SDS011;53853;51.982;5.928;2022-12-13T07:00:11;26.77;;;17.05;;
66946;SDS011;53853;51.982;5.928;2022-12-13T07:02:42;32.42;;;19.02;;
66946;SDS011;53853;51.982;5.928;2022-12-13T07:05:15;28.13;;;16.52;;
66946;SDS011;53853;51.982;5.928;2022-12-13T07:07:45;28.27;;;18.70;;
66946;SDS011;53853;51.982;5.928;2022-12-13T07:10:15;31.77;;;19.40;;
66946;SDS011;53853;51.982;5.928;2022-12-13T07:12:45;29.90;;;18.23;;
66946;SDS011;53853;51.982;5.928;2022-12-13T07:15:15;32.72;;;18.67;;
66946;SDS011;53853;51.982;5.928;2022-12-13T07:17:47;28.15;;;17.88;;
66946;SDS011;53853;51.982;5.928;2022-12-13T07:20:20;28.45;;;17.58;;
66946;SDS011;53853;51.982;5.928;2022-12-13T07:22:50;31.48;;;18.88;;
66946;SDS011;53853;51.982;5.928;2022-12-13T07:25:21;30.63;;;18.67;;
66946;SDS011;53853;51.982;5.928;2022-12-13T07:27:54;28.05;;;17.15;;
66946;SDS011;53853;51.982;5.928;2022-12-13T07:30:25;27.50;;;17.40;;
66946;SDS011;53853;51.982;5.928;2022-12-13T07:32:55;34.08;;;20.10;;
66946;SDS011;53853;51.982;5.928;2022-12-13T07:35:28;30.80;;;18.13;;
66946;SDS011;53853;51.982;5.928;2022-12-13T07:37:59;34.22;;;20.20;;
66946;SDS011;53853;51.982;5.928;2022-12-13T07:40:29;43.97;;;24.90;;
66946;SDS011;53853;51.982;5.928;2022-12-13T07:43:00;29.67;;;19.05;;
66946;SDS011;53853;51.982;5.928;2022-12-13T07:45:30;33.63;;;18.95;;
66946;SDS011;53853;51.982;5.928;2022-12-13T07:48:04;28.63;;;18.45;;
66946;SDS011;53853;51.982;5.928;2022-12-13T07:53:07;34.63;;;19.70;;
66946;SDS011;53853;51.982;5.928;2022-12-13T07:55:38;36.22;;;22.98;;
66946;SDS011;53853;51.982;5.928;2022-12-13T07:58:08;37.08;;;20.60;;
66946;SDS011;53853;51.982;5.928;2022-12-13T08:00:41;36.92;;;19.38;;
66946;SDS011;53853;51.982;5.928;2022-12-13T08:03:12;32.40;;;19.67;;
66946;SDS011;53853;51.982;5.928;2022-12-13T08:05:45;36.60;;;19.70;;
66946;SDS011;53853;51.982;5.928;2022-12-13T08:08:15;33.28;;;21.17;;
66946;SDS011;53853;51.982;5.928;2022-12-13T08:10:45;29.20;;;19.13;;
66946;SDS011;53853;51.982;5.928;2022-12-13T08:13:15;33.85;;;21.02;;
66946;SDS011;53853;51.982;5.928;2022-12-13T08:15:45;31.23;;;18.58;;
66946;SDS011;53853;51.982;5.928;2022-12-13T08:18:15;31.85;;;19.95;;
66946;SDS011;53853;51.982;5.928;2022-12-13T08:20:47;31.73;;;20.38;;
66946;SDS011;53853;51.982;5.928;2022-12-13T08:23:17;33.55;;;19.38;;
66946;SDS011;53853;51.982;5.928;2022-12-13T08:25:49;32.78;;;20.30;;
66946;SDS011;53853;51.982;5.928;2022-12-13T08:28:20;30.10;;;19.20;;
66946;SDS011;53853;51.982;5.928;2022-12-13T08:30:52;34.67;;;20.52;;
66946;SDS011;53853;51.982;5.928;2022-12-13T08:33:22;31.00;;;18.08;;
66946;SDS011;53853;51.982;5.928;2022-12-13T08:35:54;28.50;;;18.38;;
66946;SDS011;53853;51.982;5.928;2022-12-13T08:38:24;34.28;;;20.95;;
66946;SDS011;53853;51.982;5.928;2022-12-13T08:40:57;33.88;;;22.27;;
66946;SDS011;53853;51.982;5.928;2022-12-13T08:43:27;37.42;;;22.30;;
66946;SDS011;53853;51.982;5.928;2022-12-13T08:45:57;34.47;;;20.85;;
66946;SDS011;53853;51.982;5.928;2022-12-13T08:48:27;35.63;;;22.10;;
66946;SDS011;53853;51.982;5.928;2022-12-13T08:51:01;29.52;;;19.55;;
66946;SDS011;53853;51.982;5.928;2022-12-13T08:53:33;31.55;;;19.98;;
66946;SDS011;53853;51.982;5.928;2022-12-13T08:56:04;27.92;;;19.30;;
66946;SDS011;53853;51.982;5.928;2022-12-13T08:58:35;35.97;;;20.83;;
66946;SDS011;53853;51.982;5.928;2022-12-13T09:01:06;31.58;;;21.33;;
66946;SDS011;53853;51.982;5.928;2022-12-13T09:03:36;35.63;;;21.55;;
66946;SDS011;53853;51.982;5.928;2022-12-13T09:06:10;34.22;;;20.75;;
66946;SDS011;53853;51.982;5.928;2022-12-13T09:08:42;37.90;;;23.15;;
66946;SDS011;53853;51.982;5.928;2022-12-13T09:11:12;35.65;;;21.98;;
66946;SDS011;53853;51.982;5.928;2022-12-13T09:13:42;31.80;;;20.35;;
66946;SDS011;53853;51.982;5.928;2022-12-13T09:16:13;33.08;;;21.85;;
66946;SDS011;53853;51.982;5.928;2022-12-13T09:18:47;33.20;;;22.15;;
66946;SDS011;53853;51.982;5.928;2022-12-13T09:21:19;36.40;;;22.60;;
66946;SDS011;53853;51.982;5.928;2022-12-13T09:23:49;36.78;;;23.67;;
66946;SDS011;53853;51.982;5.928;2022-12-13T09:26:19;34.92;;;21.25;;
66946;SDS011;53853;51.982;5.928;2022-12-13T09:28:49;38.10;;;23.13;;
66946;SDS011;53853;51.982;5.928;2022-12-13T09:31:19;33.80;;;21.55;;
66946;SDS011;53853;51.982;5.928;2022-12-13T09:33:50;35.55;;;23.25;;
66946;SDS011;53853;51.982;5.928;2022-12-13T09:36:22;41.78;;;24.17;;
66946;SDS011;53853;51.982;5.928;2022-12-13T09:38:52;37.83;;;24.45;;
66946;SDS011;53853;51.982;5.928;2022-12-13T09:41:24;35.35;;;21.05;;
66946;SDS011;53853;51.982;5.928;2022-12-13T09:43:59;35.38;;;21.98;;
66946;SDS011;53853;51.982;5.928;2022-12-13T09:46:33;34.50;;;23.00;;
66946;SDS011;53853;51.982;5.928;2022-12-13T09:49:06;34.50;;;23.33;;
66946;SDS011;53853;51.982;5.928;2022-12-13T09:51:48;39.55;;;25.02;;
66946;SDS011;53853;51.982;5.928;2022-12-13T09:54:22;36.75;;;24.23;;
66946;SDS011;53853;51.982;5.928;2022-12-13T09:56:53;38.70;;;23.55;;
66946;SDS011;53853;51.982;5.928;2022-12-13T09:59:25;33.85;;;23.50;;
66946;SDS011;53853;51.982;5.928;2022-12-13T10:02:01;37.80;;;22.05;;
66946;SDS011;53853;51.982;5.928;2022-12-13T10:04:48;40.70;;;21.50;;
66946;SDS011;53853;51.982;5.928;2022-12-13T10:07:22;35.40;;;21.55;;
66946;SDS011;53853;51.982;5.928;2022-12-13T10:09:54;37.77;;;22.70;;
66946;SDS011;53853;51.982;5.928;2022-12-13T10:12:28;34.88;;;23.17;;
66946;SDS011;53853;51.982;5.928;2022-12-13T10:15:00;35.42;;;22.13;;
66946;SDS011;53853;51.982;5.928;2022-12-13T10:17:32;34.38;;;22.55;;
66946;SDS011;53853;51.982;5.928;2022-12-13T10:20:06;34.88;;;21.85;;
66946;SDS011;53853;51.982;5.928;2022-12-13T10:22:46;37.70;;;22.13;;
66946;SDS011;53853;51.982;5.928;2022-12-13T10:25:16;34.28;;;21.05;;
66946;SDS011;53853;51.982;5.928;2022-12-13T10:28:16;33.75;;;21.00;;
66946;SDS011;53853;51.982;5.928;2022-12-13T10:30:53;32.67;;;22.00;;
66946;SDS011;53853;51.982;5.928;2022-12-13T10:33:24;33.17;;;21.38;;
66946;SDS011;53853;51.982;5.928;2022-12-13T10:36:01;36.28;;;21.83;;
66946;SDS011;53853;51.982;5.928;2022-12-13T10:38:43;33.40;;;21.17;;
66946;SDS011;53853;51.982;5.928;2022-12-13T10:41:29;38.70;;;22.45;;
66946;SDS011;53853;51.982;5.928;2022-12-13T10:44:08;32.92;;;20.13;;
66946;SDS011;53853;51.982;5.928;2022-12-13T10:46:48;34.63;;;22.27;;
66946;SDS011;53853;51.982;5.928;2022-12-13T10:49:21;38.15;;;23.35;;
66946;SDS011;53853;51.982;5.928;2022-12-13T10:52:00;33.92;;;23.25;;
66946;SDS011;53853;51.982;5.928;2022-12-13T10:54:30;46.95;;;27.25;;
66946;SDS011;53853;51.982;5.928;2022-12-13T10:57:09;38.55;;;23.30;;
66946;SDS011;53853;51.982;5.928;2022-12-13T10:59:40;35.88;;;22.15;;
66946;SDS011;53853;51.982;5.928;2022-12-13T11:02:31;33.40;;;22.10;;
66946;SDS011;53853;51.982;5.928;2022-12-13T11:05:20;36.05;;;21.95;;
66946;SDS011;53853;51.982;5.928;2022-12-13T11:07:53;32.00;;;20.77;;
66946;SDS011;53853;51.982;5.928;2022-12-13T11:10:39;36.47;;;21.02;;
66946;SDS011;53853;51.982;5.928;2022-12-13T11:13:21;35.47;;;22.73;;
66946;SDS011;53853;51.982;5.928;2022-12-13T11:16:03;33.00;;;21.08;;
66946;SDS011;53853;51.982;5.928;2022-12-13T11:18:46;36.88;;;22.88;;
66946;SDS011;53853;51.982;5.928;2022-12-13T11:21:22;27.58;;;18.83;;
66946;SDS011;53853;51.982;5.928;2022-12-13T11:23:55;30.42;;;19.75;;
66946;SDS011;53853;51.982;5.928;2022-12-13T11:26:29;31.98;;;20.80;;
66946;SDS011;53853;51.982;5.928;2022-12-13T11:29:11;37.15;;;23.17;;
66946;SDS011;53853;51.982;5.928;2022-12-13T11:31:55;31.83;;;22.02;;
66946;SDS011;53853;51.982;5.928;2022-12-13T11:34:35;37.15;;;22.35;;
66946;SDS011;53853;51.982;5.928;2022-12-13T11:37:15;30.98;;;20.30;;
66946;SDS011;53853;51.982;5.928;2022-12-13T11:39:53;28.20;;;19.85;;
66946;SDS011;53853;51.982;5.928;2022-12-13T11:42:27;33.72;;;20.27;;
66946;SDS011;53853;51.982;5.928;2022-12-13T11:45:05;32.05;;;21.85;;
66946;SDS011;53853;51.982;5.928;2022-12-13T11:47:42;33.00;;;22.42;;
66946;SDS011;53853;51.982;5.928;2022-12-13T11:50:16;32.75;;;21.33;;
66946;SDS011;53853;51.982;5.928;2022-12-13T11:52:50;33.05;;;21.27;;
66946;SDS011;53853;51.982;5.928;2022-12-13T11:55:23;34.80;;;20.85;;
66946;SDS011;53853;51.982;5.928;2022-12-13T11:58:03;36.67;;;21.33;;
66946;SDS011;53853;51.982;5.928;2022-12-13T12:00:43;31.85;;;21.17;;
66946;SDS011;53853;51.982;5.928;2022-12-13T12:03:17;32.92;;;20.50;;
66946;SDS011;53853;51.982;5.928;2022-12-13T12:05:50;28.92;;;19.75;;
66946;SDS011;53853;51.982;5.928;2022-12-13T12:08:25;30.98;;;20.75;;
66946;SDS011;53853;51.982;5.928;2022-12-13T12:11:06;27.83;;;18.60;;
66946;SDS011;53853;51.982;5.928;2022-12-13T12:13:43;31.50;;;22.42;;
66946;SDS011;53853;51.982;5.928;2022-12-13T12:16:29;32.50;;;20.02;;
66946;SDS011;53853;51.982;5.928;2022-12-13T12:19:07;28.67;;;18.73;;
66946;SDS011;53853;51.982;5.928;2022-12-13T12:21:46;33.40;;;20.98;;
66946;SDS011;53853;51.982;5.928;2022-12-13T12:24:28;33.78;;;20.98;;
66946;SDS011;53853;51.982;5.928;2022-12-13T12:27:10;31.80;;;20.38;;
66946;SDS011;53853;51.982;5.928;2022-12-13T12:29:56;31.40;;;20.40;;
66946;SDS011;53853;51.982;5.928;2022-12-13T12:32:48;30.25;;;19.65;;
66946;SDS011;53853;51.982;5.928;2022-12-13T12:35:28;29.50;;;19.10;;
66946;SDS011;53853;51.982;5.928;2022-12-13T12:38:11;30.08;;;20.00;;
66946;SDS011;53853;51.982;5.928;2022-12-13T12:40:55;33.40;;;20.20;;
66946;SDS011;53853;51.982;5.928;2022-12-13T12:43:40;28.67;;;19.65;;
66946;SDS011;53853;51.982;5.928;2022-12-13T12:46:17;31.15;;;18.75;;
66946;SDS011;53853;51.982;5.928;2022-12-13T12:52:01;29.08;;;19.23;;
66946;SDS011;53853;51.982;5.928;2022-12-13T12:54:39;32.67;;;19.92;;
66946;SDS011;53853;51.982;5.928;2022-12-13T12:57:17;31.42;;;20.15;;
66946;SDS011;53853;51.982;5.928;2022-12-13T12:59:57;30.85;;;19.40;;
66946;SDS011;53853;51.982;5.928;2022-12-13T13:02:32;28.65;;;18.45;;
66946;SDS011;53853;51.982;5.928;2022-12-13T13:05:12;30.75;;;20.67;;
66946;SDS011;53853;51.982;5.928;2022-12-13T13:07:48;32.47;;;19.83;;
66946;SDS011;53853;51.982;5.928;2022-12-13T13:10:23;27.90;;;17.92;;
66946;SDS011;53853;51.982;5.928;2022-12-13T13:12:54;31.02;;;18.40;;
66946;SDS011;53853;51.982;5.928;2022-12-13T13:24:19;27.60;;;18.95;;
66946;SDS011;53853;51.982;5.928;2022-12-13T13:26:56;33.95;;;20.52;;
66946;SDS011;53853;51.982;5.928;2022-12-13T13:38:07;35.17;;;21.27;;
66946;SDS011;53853;51.982;5.928;2022-12-13T13:41:37;31.85;;;19.92;;
66946;SDS011;53853;51.982;5.928;2022-12-13T13:47:15;30.48;;;19.60;;
66946;SDS011;53853;51.982;5.928;2022-12-13T13:49:58;30.83;;;20.48;;
66946;SDS011;53853;51.982;5.928;2022-12-13T13:52:44;30.63;;;19.95;;
66946;SDS011;53853;51.982;5.928;2022-12-13T13:58:31;30.33;;;19.55;;
66946;SDS011;53853;51.982;5.928;2022-12-13T14:01:41;30.23;;;19.13;;
66946;SDS011;53853;51.982;5.928;2022-12-13T14:07:48;27.83;;;18.98;;
66946;SDS011;53853;51.982;5.928;2022-12-13T14:10:45;33.28;;;21.13;;
66946;SDS011;53853;51.982;5.928;2022-12-13T14:13:45;32.35;;;20.67;;
66946;SDS011;53853;51.982;5.928;2022-12-13T14:19:57;28.80;;;18.48;;
66946;SDS011;53853;51.982;5.928;2022-12-13T14:22:51;35.05;;;21.08;;
66946;SDS011;53853;51.982;5.928;2022-12-13T14:25:46;33.95;;;22.25;;
66946;SDS011;53853;51.982;5.928;2022-12-13T14:28:41;36.33;;;22.38;;
66946;SDS011;53853;51.982;5.928;2022-12-13T14:31:19;33.22;;;21.13;;
66946;SDS011;53853;51.982;5.928;2022-12-13T14:33:54;32.95;;;21.15;;
66946;SDS011;53853;51.982;5.928;2022-12-13T14:36:26;32.55;;;20.17;;
66946;SDS011;53853;51.982;5.928;2022-12-13T14:39:00;33.53;;;20.95;;
66946;SDS011;53853;51.982;5.928;2022-12-13T14:41:31;33.88;;;21.05;;
66946;SDS011;53853;51.982;5.928;2022-12-13T14:44:15;31.05;;;20.23;;
66946;SDS011;53853;51.982;5.928;2022-12-13T14:46:49;35.15;;;20.45;;
66946;SDS011;53853;51.982;5.928;2022-12-13T14:49:21;30.08;;;19.23;;
66946;SDS011;53853;51.982;5.928;2022-12-13T14:51:54;28.27;;;17.98;;
66946;SDS011;53853;51.982;5.928;2022-12-13T14:54:29;29.98;;;20.42;;
66946;SDS011;53853;51.982;5.928;2022-12-13T14:57:14;30.85;;;18.23;;
66946;SDS011;53853;51.982;5.928;2022-12-13T14:59:49;32.00;;;20.08;;
66946;SDS011;53853;51.982;5.928;2022-12-13T15:02:21;32.70;;;20.17;;
66946;SDS011;53853;51.982;5.928;2022-12-13T15:04:53;33.70;;;20.60;;
66946;SDS011;53853;51.982;5.928;2022-12-13T15:07:25;32.85;;;20.17;;
66946;SDS011;53853;51.982;5.928;2022-12-13T15:09:59;35.92;;;20.58;;
66946;SDS011;53853;51.982;5.928;2022-12-13T15:12:31;29.88;;;19.35;;
66946;SDS011;53853;51.982;5.928;2022-12-13T15:15:04;31.13;;;20.05;;
66946;SDS011;53853;51.982;5.928;2022-12-13T15:17:44;31.17;;;18.60;;
66946;SDS011;53853;51.982;5.928;2022-12-13T15:20:22;32.23;;;19.67;;
66946;SDS011;53853;51.982;5.928;2022-12-13T15:22:57;34.28;;;20.95;;
66946;SDS011;53853;51.982;5.928;2022-12-13T15:25:34;32.78;;;19.48;;
66946;SDS011;53853;51.982;5.928;2022-12-13T15:28:05;32.10;;;19.88;;
66946;SDS011;53853;51.982;5.928;2022-12-13T15:30:38;33.97;;;20.73;;
66946;SDS011;53853;51.982;5.928;2022-12-13T15:33:15;29.20;;;18.97;;
66946;SDS011;53853;51.982;5.928;2022-12-13T15:35:48;32.20;;;20.02;;
66946;SDS011;53853;51.982;5.928;2022-12-13T15:38:29;32.63;;;19.00;;